KFOE/FOE METAR and TAF weather

Enter ICAO airport designator
Station Type Date Time Source
KFOE METAR 2019/05/26 01:53 UTC NOAA

KFOE 260153Z 00000KT 10SM OVC029 24/21 A2995 RMK AO2 LTG DSNT S AND SW SLP133 T02390211


Station Type Date Time Source
KFOE Decoded METAR 2019/05/26 01:53 UTC NOAA

FORBES FIELD, KS, United States (KFOE) 38-56N 95-39W 320M
May 25, 2019 - 09:53 PM EDT / 2019.05.26 0153 UTC
Wind: Calm:0
Visibility: 10 mile(s):0
Sky conditions: overcast
Weather: Lightning observed
Temperature: 75.0 F (23.9 C)
Dew Point: 70.0 F (21.1 C)
Relative Humidity: 84%
Pressure (altimeter): 29.95 in. Hg (1014 hPa)
ob: KFOE 260153Z 00000KT 10SM OVC029 24/21 A2995 RMK AO2 LTG DSNT S AND SW SLP133 T02390211
cycle: 2

Station Type Date Time Source
KFOE TAF 2019/05/25 22:18 UTC NOAA

TAF
AMD KFOE 252216Z 2522/2618 20010G17KT P6SM VCTS BKN026 OVC040CB
FM260400 19009KT 6SM -TSRA SCT020 OVC040CB
FM260900 18006KT P6SM SCT020 OVC040
FM261100 17007KT 6SM BR VCTS BKN010CB OVC018

Example: see airport list